sensor_id;sensor_type;location;lat;lon;timestamp;temperature;humidity
66596;SHT31;59017;49.252;18.838;2022-12-05T00:01:22;21.20;51.45
66596;SHT31;59017;49.252;18.838;2022-12-05T00:03:49;21.21;51.30
66596;SHT31;59017;49.252;18.838;2022-12-05T00:06:15;21.21;51.19
66596;SHT31;59017;49.252;18.838;2022-12-05T00:08:40;21.20;51.54
66596;SHT31;59017;49.252;18.838;2022-12-05T00:11:16;21.24;51.51
66596;SHT31;59017;49.252;18.838;2022-12-05T00:13:41;21.20;51.57
66596;SHT31;59017;49.252;18.838;2022-12-05T00:16:08;21.21;51.65
66596;SHT31;59017;49.252;18.838;2022-12-05T00:18:33;21.23;51.82
66596;SHT31;59017;49.252;18.838;2022-12-05T00:20:59;21.23;51.59
66596;SHT31;59017;49.252;18.838;2022-12-05T00:23:24;21.27;51.86
66596;SHT31;59017;49.252;18.838;2022-12-05T00:25:49;21.27;51.85
66596;SHT31;59017;49.252;18.838;2022-12-05T00:28:15;21.27;51.83
66596;SHT31;59017;49.252;18.838;2022-12-05T00:30:40;21.25;51.87
66596;SHT31;59017;49.252;18.838;2022-12-05T00:33:05;21.27;51.66
66596;SHT31;59017;49.252;18.838;2022-12-05T00:35:32;21.27;51.89
66596;SHT31;59017;49.252;18.838;2022-12-05T00:37:57;21.27;51.43
66596;SHT31;59017;49.252;18.838;2022-12-05T00:40:22;21.27;51.78
66596;SHT31;59017;49.252;18.838;2022-12-05T00:42:48;21.25;52.02
66596;SHT31;59017;49.252;18.838;2022-12-05T00:45:13;21.25;51.71
66596;SHT31;59017;49.252;18.838;2022-12-05T00:47:38;21.25;51.58
66596;SHT31;59017;49.252;18.838;2022-12-05T00:50:04;21.23;52.02
66596;SHT31;59017;49.252;18.838;2022-12-05T00:52:29;21.23;51.17
66596;SHT31;59017;49.252;18.838;2022-12-05T00:54:55;21.24;51.45
66596;SHT31;59017;49.252;18.838;2022-12-05T00:57:20;21.23;51.59
66596;SHT31;59017;49.252;18.838;2022-12-05T00:59:45;21.23;51.72
66596;SHT31;59017;49.252;18.838;2022-12-05T01:02:11;21.24;51.88
66596;SHT31;59017;49.252;18.838;2022-12-05T01:04:36;21.23;51.49
66596;SHT31;59017;49.252;18.838;2022-12-05T01:07:01;21.24;51.34
66596;SHT31;59017;49.252;18.838;2022-12-05T01:09:26;21.23;51.92
66596;SHT31;59017;49.252;18.838;2022-12-05T01:11:52;21.28;51.83
66596;SHT31;59017;49.252;18.838;2022-12-05T01:14:18;21.28;51.64
66596;SHT31;59017;49.252;18.838;2022-12-05T01:16:45;21.27;51.77
66596;SHT31;59017;49.252;18.838;2022-12-05T01:19:17;21.28;51.65
66596;SHT31;59017;49.252;18.838;2022-12-05T01:21:42;21.30;51.92
66596;SHT31;59017;49.252;18.838;2022-12-05T01:24:09;21.30;51.50
66596;SHT31;59017;49.252;18.838;2022-12-05T01:26:34;21.30;51.42
66596;SHT31;59017;49.252;18.838;2022-12-05T01:29:00;21.30;51.71
66596;SHT31;59017;49.252;18.838;2022-12-05T01:31:35;21.27;51.77
66596;SHT31;59017;49.252;18.838;2022-12-05T01:34:01;21.28;51.63
66596;SHT31;59017;49.252;18.838;2022-12-05T01:36:27;21.31;51.41
66596;SHT31;59017;49.252;18.838;2022-12-05T01:38:52;21.28;51.49
66596;SHT31;59017;49.252;18.838;2022-12-05T01:41:20;21.27;51.35
66596;SHT31;59017;49.252;18.838;2022-12-05T01:46:38;21.27;51.52
66596;SHT31;59017;49.252;18.838;2022-12-05T01:49:16;21.27;51.59
66596;SHT31;59017;49.252;18.838;2022-12-05T01:51:47;21.28;51.97
66596;SHT31;59017;49.252;18.838;2022-12-05T01:54:14;21.32;51.78
66596;SHT31;59017;49.252;18.838;2022-12-05T01:56:41;21.31;51.82
66596;SHT31;59017;49.252;18.838;2022-12-05T01:59:08;21.28;51.66
66596;SHT31;59017;49.252;18.838;2022-12-05T02:01:35;21.30;51.79
66596;SHT31;59017;49.252;18.838;2022-12-05T02:04:00;21.30;51.68
66596;SHT31;59017;49.252;18.838;2022-12-05T02:06:26;21.30;51.78
66596;SHT31;59017;49.252;18.838;2022-12-05T02:08:52;21.31;51.65
66596;SHT31;59017;49.252;18.838;2022-12-05T02:11:18;21.30;51.61
66596;SHT31;59017;49.252;18.838;2022-12-05T02:31:50;21.31;51.50
66596;SHT31;59017;49.252;18.838;2022-12-05T02:36:47;21.31;51.53
66596;SHT31;59017;49.252;18.838;2022-12-05T02:39:26;21.30;51.27
66596;SHT31;59017;49.252;18.838;2022-12-05T02:44:23;21.28;51.33
66596;SHT31;59017;49.252;18.838;2022-12-05T02:46:50;21.31;51.09
66596;SHT31;59017;49.252;18.838;2022-12-05T02:49:20;21.30;51.42
66596;SHT31;59017;49.252;18.838;2022-12-05T02:51:49;21.28;51.10
66596;SHT31;59017;49.252;18.838;2022-12-05T02:54:17;21.28;51.07
66596;SHT31;59017;49.252;18.838;2022-12-05T02:56:43;21.30;51.46
66596;SHT31;59017;49.252;18.838;2022-12-05T02:59:10;21.28;51.54
66596;SHT31;59017;49.252;18.838;2022-12-05T03:01:35;21.27;51.60
66596;SHT31;59017;49.252;18.838;2022-12-05T03:04:01;21.25;51.22
66596;SHT31;59017;49.252;18.838;2022-12-05T03:06:28;21.27;51.30
66596;SHT31;59017;49.252;18.838;2022-12-05T03:08:59;21.24;51.35
66596;SHT31;59017;49.252;18.838;2022-12-05T03:11:31;21.25;51.39
66596;SHT31;59017;49.252;18.838;2022-12-05T03:13:58;21.27;51.39
66596;SHT31;59017;49.252;18.838;2022-12-05T03:16:38;21.25;51.57
66596;SHT31;59017;49.252;18.838;2022-12-05T03:19:11;21.27;51.31
66596;SHT31;59017;49.252;18.838;2022-12-05T03:21:39;21.25;51.62
66596;SHT31;59017;49.252;18.838;2022-12-05T03:24:09;21.27;51.60
66596;SHT31;59017;49.252;18.838;2022-12-05T03:31:31;21.31;51.83
66596;SHT31;59017;49.252;18.838;2022-12-05T03:33:58;21.31;51.60
66596;SHT31;59017;49.252;18.838;2022-12-05T03:36:28;21.30;51.70
66596;SHT31;59017;49.252;18.838;2022-12-05T03:38:57;21.30;51.50
66596;SHT31;59017;49.252;18.838;2022-12-05T03:44:20;21.30;51.41
66596;SHT31;59017;49.252;18.838;2022-12-05T03:46:49;21.27;51.46
66596;SHT31;59017;49.252;18.838;2022-12-05T03:51:50;21.27;51.39
66596;SHT31;59017;49.252;18.838;2022-12-05T03:54:19;21.28;51.45
66596;SHT31;59017;49.252;18.838;2022-12-05T03:56:48;21.27;51.51
66596;SHT31;59017;49.252;18.838;2022-12-05T04:01:43;21.28;51.50
66596;SHT31;59017;49.252;18.838;2022-12-05T04:04:12;21.28;51.45
66596;SHT31;59017;49.252;18.838;2022-12-05T04:06:41;21.30;51.56
66596;SHT31;59017;49.252;18.838;2022-12-05T04:09:14;21.32;51.57
66596;SHT31;59017;49.252;18.838;2022-12-05T04:11:42;21.31;51.31
66596;SHT31;59017;49.252;18.838;2022-12-05T04:14:12;21.32;51.39
66596;SHT31;59017;49.252;18.838;2022-12-05T04:16:44;21.32;51.19
66596;SHT31;59017;49.252;18.838;2022-12-05T04:22:21;21.32;51.26
66596;SHT31;59017;49.252;18.838;2022-12-05T04:24:49;21.35;51.55
66596;SHT31;59017;49.252;18.838;2022-12-05T04:30:03;21.34;51.16
66596;SHT31;59017;49.252;18.838;2022-12-05T04:32:39;21.35;51.27
66596;SHT31;59017;49.252;18.838;2022-12-05T04:35:16;21.35;51.39
66596;SHT31;59017;49.252;18.838;2022-12-05T04:37:44;21.37;51.47
66596;SHT31;59017;49.252;18.838;2022-12-05T04:40:11;21.32;51.26
66596;SHT31;59017;49.252;18.838;2022-12-05T04:42:38;21.35;51.34
66596;SHT31;59017;49.252;18.838;2022-12-05T04:45:05;21.32;51.24
66596;SHT31;59017;49.252;18.838;2022-12-05T04:47:34;21.34;51.14
66596;SHT31;59017;49.252;18.838;2022-12-05T04:50:01;21.34;51.22
66596;SHT31;59017;49.252;18.838;2022-12-05T04:52:27;21.31;51.40
66596;SHT31;59017;49.252;18.838;2022-12-05T04:55:04;21.30;51.34
66596;SHT31;59017;49.252;18.838;2022-12-05T04:57:36;21.31;51.32
66596;SHT31;59017;49.252;18.838;2022-12-05T05:00:04;21.27;51.43
66596;SHT31;59017;49.252;18.838;2022-12-05T05:02:41;21.28;51.59
66596;SHT31;59017;49.252;18.838;2022-12-05T05:05:08;21.28;51.40
66596;SHT31;59017;49.252;18.838;2022-12-05T05:07:48;21.28;51.40
66596;SHT31;59017;49.252;18.838;2022-12-05T05:10:14;21.28;51.54
66596;SHT31;59017;49.252;18.838;2022-12-05T05:12:40;21.25;51.68
66596;SHT31;59017;49.252;18.838;2022-12-05T05:15:05;21.27;51.38
66596;SHT31;59017;49.252;18.838;2022-12-05T05:17:31;21.25;51.31
66596;SHT31;59017;49.252;18.838;2022-12-05T05:19:56;21.24;51.21
66596;SHT31;59017;49.252;18.838;2022-12-05T05:22:41;21.24;51.33
66596;SHT31;59017;49.252;18.838;2022-12-05T05:25:07;21.24;51.28
66596;SHT31;59017;49.252;18.838;2022-12-05T05:27:32;21.24;51.19
66596;SHT31;59017;49.252;18.838;2022-12-05T05:29:57;21.24;50.98
66596;SHT31;59017;49.252;18.838;2022-12-05T05:32:22;21.23;51.38
66596;SHT31;59017;49.252;18.838;2022-12-05T05:34:48;21.24;51.45
66596;SHT31;59017;49.252;18.838;2022-12-05T05:37:13;21.24;51.19
66596;SHT31;59017;49.252;18.838;2022-12-05T05:39:38;21.21;51.31
66596;SHT31;59017;49.252;18.838;2022-12-05T05:42:04;21.25;51.28
66596;SHT31;59017;49.252;18.838;2022-12-05T05:44:29;21.23;51.24
66596;SHT31;59017;49.252;18.838;2022-12-05T05:46:54;21.24;51.20
66596;SHT31;59017;49.252;18.838;2022-12-05T05:49:20;21.24;51.19
66596;SHT31;59017;49.252;18.838;2022-12-05T05:51:45;21.23;51.31
66596;SHT31;59017;49.252;18.838;2022-12-05T05:54:10;21.27;50.97
66596;SHT31;59017;49.252;18.838;2022-12-05T05:56:35;21.24;51.27
66596;SHT31;59017;49.252;18.838;2022-12-05T05:59:02;21.24;51.01
66596;SHT31;59017;49.252;18.838;2022-12-05T06:01:27;21.25;51.14
66596;SHT31;59017;49.252;18.838;2022-12-05T06:03:53;21.25;51.03
66596;SHT31;59017;49.252;18.838;2022-12-05T06:06:19;21.25;51.23
66596;SHT31;59017;49.252;18.838;2022-12-05T06:08:44;21.23;50.93
66596;SHT31;59017;49.252;18.838;2022-12-05T06:11:11;21.25;50.90
66596;SHT31;59017;49.252;18.838;2022-12-05T06:13:37;21.23;51.10
66596;SHT31;59017;49.252;18.838;2022-12-05T06:16:09;21.25;51.15
66596;SHT31;59017;49.252;18.838;2022-12-05T06:18:35;21.28;51.18
66596;SHT31;59017;49.252;18.838;2022-12-05T06:21:01;21.25;51.26
66596;SHT31;59017;49.252;18.838;2022-12-05T06:23:26;21.24;51.28
66596;SHT31;59017;49.252;18.838;2022-12-05T06:25:52;21.27;51.40
66596;SHT31;59017;49.252;18.838;2022-12-05T06:28:18;21.27;50.93
66596;SHT31;59017;49.252;18.838;2022-12-05T06:30:43;21.28;51.17
66596;SHT31;59017;49.252;18.838;2022-12-05T06:33:09;21.30;50.97
66596;SHT31;59017;49.252;18.838;2022-12-05T06:35:34;21.27;51.22
66596;SHT31;59017;49.252;18.838;2022-12-05T06:37:59;21.28;50.99
66596;SHT31;59017;49.252;18.838;2022-12-05T06:40:25;21.27;51.24
66596;SHT31;59017;49.252;18.838;2022-12-05T06:42:50;21.27;51.23
66596;SHT31;59017;49.252;18.838;2022-12-05T06:45:16;21.25;51.30
66596;SHT31;59017;49.252;18.838;2022-12-05T06:47:41;21.27;51.33
66596;SHT31;59017;49.252;18.838;2022-12-05T06:50:06;21.27;51.28
66596;SHT31;59017;49.252;18.838;2022-12-05T06:52:32;21.27;51.54
66596;SHT31;59017;49.252;18.838;2022-12-05T06:54:57;21.30;51.55
66596;SHT31;59017;49.252;18.838;2022-12-05T06:57:23;21.28;51.62
66596;SHT31;59017;49.252;18.838;2022-12-05T06:59:49;21.31;51.70
66596;SHT31;59017;49.252;18.838;2022-12-05T07:02:14;21.30;51.63
66596;SHT31;59017;49.252;18.838;2022-12-05T07:04:39;21.32;51.52
66596;SHT31;59017;49.252;18.838;2022-12-05T07:07:05;21.34;51.77
66596;SHT31;59017;49.252;18.838;2022-12-05T07:09:30;21.30;51.87
66596;SHT31;59017;49.252;18.838;2022-12-05T07:12:13;21.34;51.62
66596;SHT31;59017;49.252;18.838;2022-12-05T07:14:38;21.32;51.55
66596;SHT31;59017;49.252;18.838;2022-12-05T07:17:04;21.34;51.55
66596;SHT31;59017;49.252;18.838;2022-12-05T07:19:29;21.31;51.46
66596;SHT31;59017;49.252;18.838;2022-12-05T07:21:54;21.34;51.63
66596;SHT31;59017;49.252;18.838;2022-12-05T07:24:20;21.32;51.63
66596;SHT31;59017;49.252;18.838;2022-12-05T07:26:45;21.34;51.49
66596;SHT31;59017;49.252;18.838;2022-12-05T07:29:10;21.34;51.28
66596;SHT31;59017;49.252;18.838;2022-12-05T07:31:36;21.34;51.49
66596;SHT31;59017;49.252;18.838;2022-12-05T07:34:01;21.32;51.40
66596;SHT31;59017;49.252;18.838;2022-12-05T07:36:27;21.31;51.41
66596;SHT31;59017;49.252;18.838;2022-12-05T07:38:55;21.34;51.38
66596;SHT31;59017;49.252;18.838;2022-12-05T07:41:28;21.35;51.37
66596;SHT31;59017;49.252;18.838;2022-12-05T07:43:54;21.32;51.42
66596;SHT31;59017;49.252;18.838;2022-12-05T07:46:20;21.34;51.58
66596;SHT31;59017;49.252;18.838;2022-12-05T07:48:49;21.37;51.40
66596;SHT31;59017;49.252;18.838;2022-12-05T07:51:15;21.32;51.59
66596;SHT31;59017;49.252;18.838;2022-12-05T07:53:40;21.37;51.55
66596;SHT31;59017;49.252;18.838;2022-12-05T07:56:08;21.34;51.38
66596;SHT31;59017;49.252;18.838;2022-12-05T07:58:34;21.35;51.40
66596;SHT31;59017;49.252;18.838;2022-12-05T08:03:31;21.37;51.57
66596;SHT31;59017;49.252;18.838;2022-12-05T08:06:00;21.35;51.54
66596;SHT31;59017;49.252;18.838;2022-12-05T08:08:25;21.37;51.41
66596;SHT31;59017;49.252;18.838;2022-12-05T08:10:51;21.37;51.11
66596;SHT31;59017;49.252;18.838;2022-12-05T08:13:16;21.38;51.37
66596;SHT31;59017;49.252;18.838;2022-12-05T08:15:41;21.37;51.30
66596;SHT31;59017;49.252;18.838;2022-12-05T08:18:06;21.35;51.50
66596;SHT31;59017;49.252;18.838;2022-12-05T08:20:32;21.37;51.52
66596;SHT31;59017;49.252;18.838;2022-12-05T08:22:57;21.37;51.42
66596;SHT31;59017;49.252;18.838;2022-12-05T08:25:22;21.37;51.38
66596;SHT31;59017;49.252;18.838;2022-12-05T08:27:48;21.38;51.46
66596;SHT31;59017;49.252;18.838;2022-12-05T08:30:13;21.38;51.44
66596;SHT31;59017;49.252;18.838;2022-12-05T08:32:38;21.38;51.17
66596;SHT31;59017;49.252;18.838;2022-12-05T08:35:04;21.41;51.49
66596;SHT31;59017;49.252;18.838;2022-12-05T08:37:29;21.41;51.50
66596;SHT31;59017;49.252;18.838;2022-12-05T08:39:54;21.41;51.31
66596;SHT31;59017;49.252;18.838;2022-12-05T08:42:20;21.42;51.51
66596;SHT31;59017;49.252;18.838;2022-12-05T08:44:45;21.42;51.34
66596;SHT31;59017;49.252;18.838;2022-12-05T08:47:10;21.44;51.48
66596;SHT31;59017;49.252;18.838;2022-12-05T08:49:36;21.41;51.50
66596;SHT31;59017;49.252;18.838;2022-12-05T08:52:01;21.45;51.54
66596;SHT31;59017;49.252;18.838;2022-12-05T08:54:27;21.44;51.42
66596;SHT31;59017;49.252;18.838;2022-12-05T08:56:52;21.45;51.51
66596;SHT31;59017;49.252;18.838;2022-12-05T08:59:17;21.44;51.25
66596;SHT31;59017;49.252;18.838;2022-12-05T09:01:43;21.45;51.58
66596;SHT31;59017;49.252;18.838;2022-12-05T09:04:08;21.45;51.37
66596;SHT31;59017;49.252;18.838;2022-12-05T09:06:34;21.46;51.33
66596;SHT31;59017;49.252;18.838;2022-12-05T09:09:00;21.49;51.65
66596;SHT31;59017;49.252;18.838;2022-12-05T09:11:30;21.46;51.62
66596;SHT31;59017;49.252;18.838;2022-12-05T09:13:56;21.49;51.43
66596;SHT31;59017;49.252;18.838;2022-12-05T09:16:26;21.48;51.04
66596;SHT31;59017;49.252;18.838;2022-12-05T09:18:53;21.48;50.91
66596;SHT31;59017;49.252;18.838;2022-12-05T09:21:20;21.44;50.63
66596;SHT31;59017;49.252;18.838;2022-12-05T09:23:46;21.37;50.39
66596;SHT31;59017;49.252;18.838;2022-12-05T09:26:12;21.18;49.16
66596;SHT31;59017;49.252;18.838;2022-12-05T09:28:38;21.27;48.56
66596;SHT31;59017;49.252;18.838;2022-12-05T09:31:04;21.31;48.30
66596;SHT31;59017;49.252;18.838;2022-12-05T09:33:30;21.34;48.12
66596;SHT31;59017;49.252;18.838;2022-12-05T09:35:56;21.39;48.16
66596;SHT31;59017;49.252;18.838;2022-12-05T09:38:22;21.38;48.10
66596;SHT31;59017;49.252;18.838;2022-12-05T09:40:53;21.41;47.86
66596;SHT31;59017;49.252;18.838;2022-12-05T09:43:33;21.42;47.97
66596;SHT31;59017;49.252;18.838;2022-12-05T09:46:47;21.42;47.81
66596;SHT31;59017;49.252;18.838;2022-12-05T09:48:46;21.44;47.65
66596;SHT31;59017;49.252;18.838;2022-12-05T09:51:12;21.46;47.72
66596;SHT31;59017;49.252;18.838;2022-12-05T09:53:39;21.48;47.56
66596;SHT31;59017;49.252;18.838;2022-12-05T09:56:19;21.49;47.45
66596;SHT31;59017;49.252;18.838;2022-12-05T09:58:48;21.49;47.59
66596;SHT31;59017;49.252;18.838;2022-12-05T10:03:41;21.49;47.48
66596;SHT31;59017;49.252;18.838;2022-12-05T10:06:09;21.51;47.49
66596;SHT31;59017;49.252;18.838;2022-12-05T10:11:17;21.52;47.40
66596;SHT31;59017;49.252;18.838;2022-12-05T10:16:13;21.54;47.48
66596;SHT31;59017;49.252;18.838;2022-12-05T10:21:11;21.56;47.41
66596;SHT31;59017;49.252;18.838;2022-12-05T10:23:46;21.56;47.32
66596;SHT31;59017;49.252;18.838;2022-12-05T10:26:13;21.55;47.36
66596;SHT31;59017;49.252;18.838;2022-12-05T10:28:41;21.59;47.31
66596;SHT31;59017;49.252;18.838;2022-12-05T10:31:12;21.59;47.31
66596;SHT31;59017;49.252;18.838;2022-12-05T10:33:43;21.61;47.35
66596;SHT31;59017;49.252;18.838;2022-12-05T10:36:11;21.58;47.12
66596;SHT31;59017;49.252;18.838;2022-12-05T10:38:37;21.59;47.22
66596;SHT31;59017;49.252;18.838;2022-12-05T10:41:04;21.59;47.27
66596;SHT31;59017;49.252;18.838;2022-12-05T10:43:31;21.61;47.19
66596;SHT31;59017;49.252;18.838;2022-12-05T10:45:57;21.61;47.20
66596;SHT31;59017;49.252;18.838;2022-12-05T10:48:23;21.63;47.26
66596;SHT31;59017;49.252;18.838;2022-12-05T10:50:49;21.62;47.23
66596;SHT31;59017;49.252;18.838;2022-12-05T10:53:18;21.62;47.22
66596;SHT31;59017;49.252;18.838;2022-12-05T10:55:47;21.65;47.20
66596;SHT31;59017;49.252;18.838;2022-12-05T10:58:13;21.63;47.04
66596;SHT31;59017;49.252;18.838;2022-12-05T11:00:40;21.62;47.17
66596;SHT31;59017;49.252;18.838;2022-12-05T11:05:58;21.63;47.25
66596;SHT31;59017;49.252;18.838;2022-12-05T11:08:31;21.65;47.13
66596;SHT31;59017;49.252;18.838;2022-12-05T11:10:59;21.63;47.07
66596;SHT31;59017;49.252;18.838;2022-12-05T11:13:25;21.66;47.13
66596;SHT31;59017;49.252;18.838;2022-12-05T11:15:50;21.65;47.25
66596;SHT31;59017;49.252;18.838;2022-12-05T11:18:17;21.66;47.29
66596;SHT31;59017;49.252;18.838;2022-12-05T11:20:43;21.65;47.31
66596;SHT31;59017;49.252;18.838;2022-12-05T11:23:15;21.63;47.35
66596;SHT31;59017;49.252;18.838;2022-12-05T11:25:40;21.66;47.37
66596;SHT31;59017;49.252;18.838;2022-12-05T11:31:03;21.66;47.39
66596;SHT31;59017;49.252;18.838;2022-12-05T11:33:32;21.69;47.33
66596;SHT31;59017;49.252;18.838;2022-12-05T11:36:00;21.66;47.33
66596;SHT31;59017;49.252;18.838;2022-12-05T11:38:27;21.67;47.25
66596;SHT31;59017;49.252;18.838;2022-12-05T11:51:35;21.67;47.35
66596;SHT31;59017;49.252;18.838;2022-12-05T11:54:16;21.67;47.32
66596;SHT31;59017;49.252;18.838;2022-12-05T11:56:46;21.69;47.34
66596;SHT31;59017;49.252;18.838;2022-12-05T12:11:45;21.66;47.27
66596;SHT31;59017;49.252;18.838;2022-12-05T12:14:19;21.71;47.37
66596;SHT31;59017;49.252;18.838;2022-12-05T12:16:52;21.69;47.30
66596;SHT31;59017;49.252;18.838;2022-12-05T12:21:52;21.71;47.22
66596;SHT31;59017;49.252;18.838;2022-12-05T12:24:29;21.72;47.26
66596;SHT31;59017;49.252;18.838;2022-12-05T12:27:14;21.71;47.26
66596;SHT31;59017;49.252;18.838;2022-12-05T12:32:38;21.71;47.22
66596;SHT31;59017;49.252;18.838;2022-12-05T12:35:27;21.69;47.14
66596;SHT31;59017;49.252;18.838;2022-12-05T12:47:57;21.66;47.15
66596;SHT31;59017;49.252;18.838;2022-12-05T12:50:25;21.69;47.19
66596;SHT31;59017;49.252;18.838;2022-12-05T13:00:34;21.67;47.04
66596;SHT31;59017;49.252;18.838;2022-12-05T13:05:43;21.71;47.11
66596;SHT31;59017;49.252;18.838;2022-12-05T13:08:13;21.69;47.18
66596;SHT31;59017;49.252;18.838;2022-12-05T13:10:41;21.69;47.11
66596;SHT31;59017;49.252;18.838;2022-12-05T13:13:08;21.71;47.18
66596;SHT31;59017;49.252;18.838;2022-12-05T13:18:01;21.71;47.21
66596;SHT31;59017;49.252;18.838;2022-12-05T13:20:29;21.67;47.10
66596;SHT31;59017;49.252;18.838;2022-12-05T13:22:56;21.66;47.17
66596;SHT31;59017;49.252;18.838;2022-12-05T13:25:23;21.67;47.17
66596;SHT31;59017;49.252;18.838;2022-12-05T13:28:00;21.67;47.21
66596;SHT31;59017;49.252;18.838;2022-12-05T13:30:25;21.66;47.25
66596;SHT31;59017;49.252;18.838;2022-12-05T13:32:58;21.66;47.19
66596;SHT31;59017;49.252;18.838;2022-12-05T13:35:32;21.66;47.25
66596;SHT31;59017;49.252;18.838;2022-12-05T13:38:26;21.66;47.11
66596;SHT31;59017;49.252;18.838;2022-12-05T13:41:10;21.65;47.24
66596;SHT31;59017;49.252;18.838;2022-12-05T13:43:55;21.63;47.29
66596;SHT31;59017;49.252;18.838;2022-12-05T13:46:28;21.66;47.33
66596;SHT31;59017;49.252;18.838;2022-12-05T13:48:58;21.63;47.26
66596;SHT31;59017;49.252;18.838;2022-12-05T13:53:56;21.63;47.25
66596;SHT31;59017;49.252;18.838;2022-12-05T13:56:24;21.62;47.21
66596;SHT31;59017;49.252;18.838;2022-12-05T14:04:01;21.59;47.31
66596;SHT31;59017;49.252;18.838;2022-12-05T14:17:09;21.58;47.29
66596;SHT31;59017;49.252;18.838;2022-12-05T14:19:42;21.56;47.27
66596;SHT31;59017;49.252;18.838;2022-12-05T14:24:44;21.56;47.35
66596;SHT31;59017;49.252;18.838;2022-12-05T14:37:39;21.54;47.37
66596;SHT31;59017;49.252;18.838;2022-12-05T14:42:51;21.55;47.36
66596;SHT31;59017;49.252;18.838;2022-12-05T14:47:52;21.52;47.27
66596;SHT31;59017;49.252;18.838;2022-12-05T14:50:35;21.51;47.42
66596;SHT31;59017;49.252;18.838;2022-12-05T14:55:54;21.51;47.30
66596;SHT31;59017;49.252;18.838;2022-12-05T15:01:05;21.51;47.33
66596;SHT31;59017;49.252;18.838;2022-12-05T15:03:34;21.52;47.43
66596;SHT31;59017;49.252;18.838;2022-12-05T15:06:01;21.49;47.40
66596;SHT31;59017;49.252;18.838;2022-12-05T15:08:28;21.49;47.35
66596;SHT31;59017;49.252;18.838;2022-12-05T15:10:55;21.48;47.39
66596;SHT31;59017;49.252;18.838;2022-12-05T15:13:21;21.49;47.43
66596;SHT31;59017;49.252;18.838;2022-12-05T15:18:25;21.49;47.40
66596;SHT31;59017;49.252;18.838;2022-12-05T15:26:00;21.49;47.35
66596;SHT31;59017;49.252;18.838;2022-12-05T15:28:26;21.48;47.50
66596;SHT31;59017;49.252;18.838;2022-12-05T15:30:54;21.48;47.37
66596;SHT31;59017;49.252;18.838;2022-12-05T15:33:20;21.45;47.40
66596;SHT31;59017;49.252;18.838;2022-12-05T15:35:45;21.48;47.35
66596;SHT31;59017;49.252;18.838;2022-12-05T15:38:20;21.48;47.28
66596;SHT31;59017;49.252;18.838;2022-12-05T15:40:47;21.49;47.40
66596;SHT31;59017;49.252;18.838;2022-12-05T15:45:50;21.48;47.40
66596;SHT31;59017;49.252;18.838;2022-12-05T15:48:30;21.46;47.50
66596;SHT31;59017;49.252;18.838;2022-12-05T15:50:55;21.51;47.68
66596;SHT31;59017;49.252;18.838;2022-12-05T15:58:32;21.49;48.62
66596;SHT31;59017;49.252;18.838;2022-12-05T16:01:03;21.51;48.94
66596;SHT31;59017;49.252;18.838;2022-12-05T16:03:42;21.49;49.07
66596;SHT31;59017;49.252;18.838;2022-12-05T16:06:10;21.49;49.31
66596;SHT31;59017;49.252;18.838;2022-12-05T16:08:41;21.54;49.83
66596;SHT31;59017;49.252;18.838;2022-12-05T16:11:07;21.52;50.19
66596;SHT31;59017;49.252;18.838;2022-12-05T16:13:33;21.51;50.27
66596;SHT31;59017;49.252;18.838;2022-12-05T16:15:58;21.52;49.93
66596;SHT31;59017;49.252;18.838;2022-12-05T16:18:25;21.51;50.46
66596;SHT31;59017;49.252;18.838;2022-12-05T16:20:51;21.52;50.91
66596;SHT31;59017;49.252;18.838;2022-12-05T16:23:22;21.51;51.34
66596;SHT31;59017;49.252;18.838;2022-12-05T16:25:48;21.52;52.42
66596;SHT31;59017;49.252;18.838;2022-12-05T16:28:14;21.52;51.75
66596;SHT31;59017;49.252;18.838;2022-12-05T16:30:51;21.54;52.70
66596;SHT31;59017;49.252;18.838;2022-12-05T16:33:16;21.54;52.27
66596;SHT31;59017;49.252;18.838;2022-12-05T16:35:44;21.52;52.47
66596;SHT31;59017;49.252;18.838;2022-12-05T16:45:55;21.56;53.46
66596;SHT31;59017;49.252;18.838;2022-12-05T16:48:27;21.55;53.53
66596;SHT31;59017;49.252;18.838;2022-12-05T16:53:53;21.56;53.94
66596;SHT31;59017;49.252;18.838;2022-12-05T16:56:36;21.58;54.30
66596;SHT31;59017;49.252;18.838;2022-12-05T16:59:04;21.59;54.59
66596;SHT31;59017;49.252;18.838;2022-12-05T17:01:29;21.58;54.82
66596;SHT31;59017;49.252;18.838;2022-12-05T17:03:55;21.59;55.00
66596;SHT31;59017;49.252;18.838;2022-12-05T17:06:21;21.59;55.14
66596;SHT31;59017;49.252;18.838;2022-12-05T17:08:48;21.59;55.34
66596;SHT31;59017;49.252;18.838;2022-12-05T17:11:32;21.61;55.90
66596;SHT31;59017;49.252;18.838;2022-12-05T17:13:59;21.59;56.09
66596;SHT31;59017;49.252;18.838;2022-12-05T17:16:24;21.61;56.44
66596;SHT31;59017;49.252;18.838;2022-12-05T17:18:50;21.62;56.65
66596;SHT31;59017;49.252;18.838;2022-12-05T17:21:16;21.61;57.50
66596;SHT31;59017;49.252;18.838;2022-12-05T17:23:43;21.62;57.60
66596;SHT31;59017;49.252;18.838;2022-12-05T17:26:11;21.62;57.99
66596;SHT31;59017;49.252;18.838;2022-12-05T17:28:37;21.63;57.99
66596;SHT31;59017;49.252;18.838;2022-12-05T17:31:02;21.62;57.88
66596;SHT31;59017;49.252;18.838;2022-12-05T17:33:28;21.63;57.65
66596;SHT31;59017;49.252;18.838;2022-12-05T17:35:53;21.61;57.58
66596;SHT31;59017;49.252;18.838;2022-12-05T17:38:18;21.63;57.21
66596;SHT31;59017;49.252;18.838;2022-12-05T17:40:44;21.61;56.86
66596;SHT31;59017;49.252;18.838;2022-12-05T17:43:13;21.61;56.76
66596;SHT31;59017;49.252;18.838;2022-12-05T17:45:39;21.62;56.62
66596;SHT31;59017;49.252;18.838;2022-12-05T17:48:05;21.63;56.36
66596;SHT31;59017;49.252;18.838;2022-12-05T17:50:30;21.58;56.04
66596;SHT31;59017;49.252;18.838;2022-12-05T17:52:56;21.59;55.79
66596;SHT31;59017;49.252;18.838;2022-12-05T17:55:26;21.58;55.67
66596;SHT31;59017;49.252;18.838;2022-12-05T17:57:55;21.58;55.56
66596;SHT31;59017;49.252;18.838;2022-12-05T18:00:21;21.58;55.47
66596;SHT31;59017;49.252;18.838;2022-12-05T18:02:46;21.52;55.36
66596;SHT31;59017;49.252;18.838;2022-12-05T18:05:12;21.58;55.09
66596;SHT31;59017;49.252;18.838;2022-12-05T18:07:38;21.55;55.06
66596;SHT31;59017;49.252;18.838;2022-12-05T18:10:05;21.54;54.96
66596;SHT31;59017;49.252;18.838;2022-12-05T18:12:32;21.52;54.82
66596;SHT31;59017;49.252;18.838;2022-12-05T18:14:57;21.52;54.92
66596;SHT31;59017;49.252;18.838;2022-12-05T18:17:23;21.49;54.64
66596;SHT31;59017;49.252;18.838;2022-12-05T18:19:49;21.51;54.80
66596;SHT31;59017;49.252;18.838;2022-12-05T18:22:14;21.49;54.62